createdAt,value
2022-09-15T00:00:56.335Z,17.17
2022-09-15T00:03:58.567Z,17.18
2022-09-15T00:07:00.526Z,17.21
2022-09-15T00:10:03.455Z,17.23
2022-09-15T00:13:05.211Z,17.23
2022-09-15T00:16:08.266Z,17.24
2022-09-15T00:19:10.015Z,17.26
2022-09-15T00:22:11.769Z,17.25
2022-09-15T00:25:14.085Z,17.26
2022-09-15T00:28:17.454Z,17.26
2022-09-15T00:31:22.008Z,17.26
2022-09-15T00:34:23.793Z,17.24
2022-09-15T00:37:26.078Z,17.26
2022-09-15T00:40:27.791Z,17.24
2022-09-15T00:43:47.805Z,17.24
2022-09-15T00:47:15.357Z,17.23
2022-09-15T00:50:18.382Z,17.23
2022-09-15T00:53:21.209Z,17.20
2022-09-15T00:56:23.541Z,17.21
2022-09-15T00:59:30.027Z,17.22
2022-09-15T01:02:34.346Z,17.23
2022-09-15T01:05:42.717Z,17.24
2022-09-15T01:09:00.665Z,17.24
2022-09-15T01:12:04.044Z,17.26
2022-09-15T01:15:06.258Z,17.24
2022-09-15T01:18:22.410Z,17.27
2022-09-15T01:21:48.299Z,17.27
2022-09-15T01:24:50.224Z,17.29
2022-09-15T01:27:57.925Z,17.29
2022-09-15T01:31:08.329Z,17.29
2022-09-15T01:34:17.880Z,17.31
2022-09-15T01:37:24.854Z,17.33
2022-09-15T01:40:32.588Z,17.35
2022-09-15T01:43:39.738Z,17.36
2022-09-15T01:46:47.123Z,17.34
2022-09-15T01:49:59.390Z,17.33
2022-09-15T01:53:03.781Z,17.35
2022-09-15T01:56:12.605Z,17.33
2022-09-15T01:59:14.373Z,17.32
2022-09-15T02:02:35.729Z,17.32
2022-09-15T02:05:43.400Z,17.30
2022-09-15T02:08:52.890Z,17.28
2022-09-15T02:12:14.557Z,17.27
2022-09-15T02:15:25.241Z,17.26
2022-09-15T02:18:38.523Z,17.24
2022-09-15T02:22:04.528Z,17.23
2022-09-15T02:25:11.593Z,17.22
2022-09-15T02:28:15.243Z,17.21
2022-09-15T02:31:20.574Z,17.20
2022-09-15T02:34:30.210Z,17.22
2022-09-15T02:37:32.368Z,17.20
2022-09-15T02:40:34.094Z,17.18
2022-09-15T02:43:45.578Z,17.19
2022-09-15T02:46:47.262Z,17.16
2022-09-15T02:49:49.039Z,17.15
2022-09-15T02:52:50.624Z,17.12
2022-09-15T02:55:52.306Z,17.11
2022-09-15T02:58:53.948Z,17.05
2022-09-15T03:01:55.693Z,17.04
2022-09-15T03:04:57.308Z,17.02
2022-09-15T03:07:59.706Z,16.99
2022-09-15T03:11:01.281Z,16.97
2022-09-15T03:14:06.143Z,16.97
2022-09-15T03:17:07.748Z,16.95
2022-09-15T03:20:12.355Z,16.94
2022-09-15T03:23:14.210Z,16.92
2022-09-15T03:26:15.916Z,16.92
2022-09-15T03:29:17.569Z,16.91
2022-09-15T03:32:19.553Z,16.87
2022-09-15T03:35:21.161Z,16.85
2022-09-15T03:38:23.205Z,16.82
2022-09-15T03:41:25.762Z,16.83
2022-09-15T03:44:27.564Z,16.81
2022-09-15T03:47:29.177Z,16.82
2022-09-15T03:50:31.579Z,16.80
2022-09-15T03:53:34.503Z,16.79
2022-09-15T03:56:36.242Z,16.75
2022-09-15T03:59:37.860Z,16.76
2022-09-15T04:02:39.498Z,16.76
2022-09-15T04:05:42.166Z,16.77
2022-09-15T04:08:44.061Z,16.74
2022-09-15T04:11:45.940Z,16.77
2022-09-15T04:14:47.705Z,16.78
2022-09-15T04:17:49.688Z,16.72
2022-09-15T04:20:51.317Z,16.81
2022-09-15T04:23:54.162Z,16.82
2022-09-15T04:26:55.822Z,16.82
2022-09-15T04:29:57.593Z,16.84
2022-09-15T04:32:59.204Z,16.85
2022-09-15T04:36:06.145Z,16.84
2022-09-15T04:39:07.839Z,16.86
2022-09-15T04:42:09.499Z,16.89
2022-09-15T04:45:11.293Z,16.86
2022-09-15T04:48:15.297Z,16.88
2022-09-15T04:51:20.026Z,16.86
2022-09-15T04:54:21.882Z,16.93
2022-09-15T04:57:23.526Z,16.90
2022-09-15T05:00:26.538Z,16.89
2022-09-15T05:03:28.160Z,16.92
2022-09-15T05:06:29.812Z,16.94
2022-09-15T05:09:31.452Z,16.95
2022-09-15T05:12:33.332Z,16.95
2022-09-15T05:15:35.193Z,16.97
2022-09-15T05:18:36.798Z,16.98
2022-09-15T05:21:38.617Z,16.97
2022-09-15T05:24:40.256Z,16.96
2022-09-15T05:27:41.913Z,16.99
2022-09-15T05:30:44.594Z,16.99
2022-09-15T05:33:48.274Z,16.99
2022-09-15T05:36:49.884Z,17.00
2022-09-15T05:39:51.532Z,17.01
2022-09-15T05:42:53.138Z,17.02
2022-09-15T05:45:55.172Z,17.00
2022-09-15T05:48:58.267Z,17.04
2022-09-15T05:52:00.216Z,17.05
2022-09-15T05:55:01.825Z,17.08
2022-09-15T05:58:03.834Z,17.10
2022-09-15T06:01:26.824Z,17.14
2022-09-15T06:04:28.673Z,17.16
2022-09-15T06:07:30.331Z,17.18
2022-09-15T06:10:32.097Z,17.18
2022-09-15T06:13:34.514Z,17.20
2022-09-15T06:16:36.224Z,17.23
2022-09-15T06:19:37.879Z,17.24
2022-09-15T06:22:39.971Z,17.25
2022-09-15T06:25:41.610Z,17.23
2022-09-15T06:28:51.537Z,17.29
2022-09-15T06:31:53.267Z,17.29
2022-09-15T06:34:54.920Z,17.30
2022-09-15T06:37:56.540Z,17.31
2022-09-15T06:40:59.349Z,17.33
2022-09-15T06:44:01.129Z,17.39
2022-09-15T06:47:04.059Z,17.42
2022-09-15T06:50:06.006Z,17.46
2022-09-15T06:53:07.683Z,17.47
2022-09-15T06:56:14.676Z,17.51
2022-09-15T06:59:16.996Z,17.53
2022-09-15T07:02:18.679Z,17.54
2022-09-15T07:05:20.497Z,17.57
2022-09-15T07:08:22.251Z,17.57
2022-09-15T07:11:24.730Z,17.60
2022-09-15T07:14:26.410Z,17.62
2022-09-15T07:17:29.080Z,17.63
2022-09-15T07:20:30.688Z,17.65
2022-09-15T07:23:33.404Z,17.68
2022-09-15T07:26:35.194Z,17.72
2022-09-15T07:29:38.323Z,17.74
2022-09-15T07:32:41.115Z,17.80
2022-09-15T07:35:43.583Z,17.85
2022-09-15T07:38:48.024Z,17.89
2022-09-15T07:41:49.613Z,17.93
2022-09-15T07:44:51.585Z,17.97
2022-09-15T07:47:54.502Z,18.01
2022-09-15T07:50:56.361Z,18.05
2022-09-15T07:53:58.025Z,18.09
2022-09-15T07:56:59.657Z,18.11
2022-09-15T08:00:02.177Z,18.14
2022-09-15T08:03:14.316Z,18.16
2022-09-15T08:06:18.206Z,18.20
2022-09-15T08:09:19.997Z,18.26
2022-09-15T08:12:21.668Z,18.31
2022-09-15T08:15:23.380Z,18.33
2022-09-15T08:18:25.334Z,18.37
2022-09-15T08:21:28.280Z,18.41
2022-09-15T08:24:29.991Z,18.48
2022-09-15T08:27:32.026Z,18.50
2022-09-15T08:30:33.704Z,18.60
2022-09-15T08:33:35.865Z,18.71
2022-09-15T08:36:37.516Z,18.82
2022-09-15T08:39:39.094Z,18.93
2022-09-15T08:42:44.828Z,19.00
2022-09-15T08:45:55.705Z,19.14
2022-09-15T08:49:26.832Z,19.31
2022-09-15T08:52:52.554Z,19.49
2022-09-15T08:55:55.953Z,19.56
2022-09-15T08:58:57.677Z,19.62
2022-09-15T09:02:32.182Z,19.73
2022-09-15T09:05:56.968Z,19.87
2022-09-15T09:09:04.633Z,20.02
2022-09-15T09:12:20.869Z,20.12
2022-09-15T09:15:28.989Z,20.22
2022-09-15T09:18:50.669Z,20.27
2022-09-15T09:21:57.793Z,20.36
2022-09-15T09:25:11.647Z,20.44
2022-09-15T09:28:32.274Z,20.42
2022-09-15T09:31:35.664Z,20.38
2022-09-15T09:34:45.499Z,20.36
2022-09-15T09:37:47.644Z,20.33
2022-09-15T09:40:49.986Z,20.31
2022-09-15T09:43:55.100Z,20.28
2022-09-15T09:46:56.795Z,20.28
2022-09-15T09:49:59.847Z,20.31
2022-09-15T09:53:18.908Z,20.26
2022-09-15T09:56:25.766Z,20.18
2022-09-15T09:59:32.318Z,20.21
2022-09-15T10:02:46.882Z,20.18
2022-09-15T10:06:13.549Z,20.23
2022-09-15T10:09:19.576Z,20.23
2022-09-15T10:12:33.956Z,20.18
2022-09-15T10:15:36.736Z,20.19
2022-09-15T10:18:39.164Z,20.24
2022-09-15T10:21:40.777Z,20.27
2022-09-15T10:24:42.477Z,20.34
2022-09-15T10:27:44.138Z,20.42
2022-09-15T10:31:07.640Z,20.48
2022-09-15T10:34:30.561Z,20.55
2022-09-15T10:37:57.094Z,20.45
2022-09-15T10:41:23.668Z,20.40
2022-09-15T10:44:43.365Z,20.34
2022-09-15T10:47:53.936Z,20.35
2022-09-15T10:51:17.086Z,20.30
2022-09-15T10:54:40.580Z,20.34
2022-09-15T10:58:16.396Z,20.29
2022-09-15T11:01:30.009Z,20.31
2022-09-15T11:05:05.670Z,20.30
2022-09-15T11:08:39.239Z,20.26
2022-09-15T11:11:55.201Z,20.30
2022-09-15T11:15:35.702Z,20.34
2022-09-15T11:18:56.199Z,20.36
2022-09-15T11:22:09.120Z,20.33
2022-09-15T11:25:25.402Z,20.35
2022-09-15T11:28:36.070Z,20.38
2022-09-15T11:31:44.802Z,20.42
2022-09-15T11:35:26.504Z,20.44
2022-09-15T11:38:48.876Z,20.51
2022-09-15T11:41:56.507Z,20.59
2022-09-15T11:45:03.590Z,20.57
2022-09-15T11:48:15.629Z,20.52
2022-09-15T11:51:23.285Z,20.48
2022-09-15T11:54:38.601Z,20.48
2022-09-15T11:57:52.982Z,20.40
2022-09-15T12:01:01.653Z,20.29
2022-09-15T12:04:17.879Z,20.12
2022-09-15T12:07:29.038Z,19.98
2022-09-15T12:10:36.739Z,19.97
2022-09-15T12:13:41.216Z,19.94
2022-09-15T12:16:44.512Z,19.94
2022-09-15T12:19:55.700Z,19.94
2022-09-15T12:23:01.570Z,19.86
2022-09-15T12:26:22.110Z,19.78
2022-09-15T12:29:26.775Z,19.71
2022-09-15T12:32:30.198Z,19.59
2022-09-15T12:35:33.877Z,19.46
2022-09-15T12:38:35.884Z,19.42
2022-09-15T12:42:08.768Z,19.36
2022-09-15T12:45:27.324Z,19.41
2022-09-15T12:48:35.853Z,19.38
2022-09-15T12:51:37.622Z,19.31
2022-09-15T12:54:45.424Z,19.37
2022-09-15T12:57:53.893Z,19.46
2022-09-15T13:01:18.832Z,19.56
2022-09-15T13:04:43.652Z,19.61
2022-09-15T13:07:57.567Z,19.69
2022-09-15T13:11:08.209Z,19.67
2022-09-15T13:14:23.434Z,19.80
2022-09-15T13:17:27.184Z,19.89
2022-09-15T13:20:34.208Z,20.01
2022-09-15T13:23:43.752Z,20.02
2022-09-15T13:26:52.014Z,20.03
2022-09-15T13:30:07.400Z,19.87
2022-09-15T13:33:25.781Z,19.74
2022-09-15T13:40:41.186Z,19.50
2022-09-15T13:44:04.725Z,19.33
2022-09-15T13:47:23.376Z,19.18
2022-09-15T13:50:34.390Z,19.01
2022-09-15T13:54:02.469Z,18.81
2022-09-15T13:57:04.669Z,18.67
2022-09-15T14:00:11.686Z,18.30
2022-09-15T14:03:28.153Z,18.21
2022-09-15T14:06:37.046Z,18.08
2022-09-15T14:09:46.672Z,18.00
2022-09-15T14:12:49.052Z,17.82
2022-09-15T14:16:27.991Z,17.68
2022-09-15T14:19:39.376Z,17.54
2022-09-15T14:22:41.088Z,17.51
2022-09-15T14:25:46.210Z,17.47
2022-09-15T14:28:51.409Z,17.45
2022-09-15T14:31:54.137Z,17.41
2022-09-15T14:34:59.713Z,17.32
2022-09-15T14:38:01.789Z,17.22
2022-09-15T14:41:03.799Z,17.20
2022-09-15T14:47:46.893Z,17.12
2022-09-15T14:51:00.273Z,16.97
2022-09-15T14:54:03.501Z,16.74
2022-09-15T14:57:09.112Z,16.56
2022-09-15T15:00:19.139Z,16.38
2022-09-15T15:03:25.173Z,16.18
2022-09-15T15:06:54.881Z,16.11
2022-09-15T15:10:06.633Z,15.98
2022-09-15T15:13:15.175Z,15.87
2022-09-15T15:16:29.761Z,15.76
2022-09-15T15:19:38.706Z,15.70
2022-09-15T15:22:42.433Z,15.64
2022-09-15T15:25:44.356Z,15.61
2022-09-15T15:28:46.230Z,15.55
2022-09-15T15:31:48.015Z,15.49
2022-09-15T15:34:54.268Z,15.47
2022-09-15T15:38:27.070Z,15.45
2022-09-15T15:41:35.188Z,15.42
2022-09-15T15:44:36.851Z,15.37
2022-09-15T15:47:38.893Z,15.37
2022-09-15T15:50:40.753Z,15.29
2022-09-15T15:53:42.732Z,15.21
2022-09-15T15:56:44.573Z,15.19
2022-09-15T15:59:46.861Z,15.19
2022-09-15T16:02:49.465Z,15.19
2022-09-15T16:05:53.974Z,15.19
2022-09-15T16:08:58.237Z,15.15
2022-09-15T16:12:00.012Z,15.12
2022-09-15T16:15:04.612Z,15.08
2022-09-15T16:18:06.395Z,15.02
2022-09-15T16:21:16.918Z,14.97
2022-09-15T16:24:18.618Z,14.97
2022-09-15T16:27:20.253Z,14.95
2022-09-15T16:30:21.917Z,14.86
2022-09-15T16:33:25.001Z,14.92
2022-09-15T16:36:27.279Z,14.89
2022-09-15T16:39:29.635Z,14.87
2022-09-15T16:42:31.228Z,14.79
2022-09-15T16:45:38.238Z,14.84
2022-09-15T16:48:43.884Z,14.81
2022-09-15T16:51:45.720Z,14.79
2022-09-15T16:54:47.411Z,14.76
2022-09-15T16:57:51.525Z,14.67
2022-09-15T17:00:53.738Z,14.73
2022-09-15T17:03:55.901Z,14.71
2022-09-15T17:06:57.654Z,14.72
2022-09-15T17:09:59.316Z,14.70
2022-09-15T17:13:01.835Z,14.69
2022-09-15T17:16:03.892Z,14.66
2022-09-15T17:19:05.524Z,14.60
2022-09-15T17:22:08.590Z,14.58
2022-09-15T17:25:24.066Z,14.58
2022-09-15T17:28:31.256Z,14.56
2022-09-15T17:31:33.079Z,14.53
2022-09-15T17:34:34.959Z,14.49
2022-09-15T17:37:36.802Z,14.49
2022-09-15T17:40:38.631Z,14.39
2022-09-15T17:43:40.389Z,14.37
2022-09-15T17:46:42.070Z,14.35
2022-09-15T17:49:43.840Z,14.37
2022-09-15T17:52:46.398Z,14.35
2022-09-15T17:55:49.470Z,14.32
2022-09-15T17:58:51.442Z,14.35
2022-09-15T18:01:53.167Z,14.35
2022-09-15T18:04:54.832Z,14.34
2022-09-15T18:07:59.165Z,14.35
2022-09-15T18:11:00.889Z,14.32
2022-09-15T18:14:02.556Z,14.29
2022-09-15T18:17:04.250Z,14.28
2022-09-15T18:20:06.581Z,14.26
2022-09-15T18:23:12.951Z,14.22
2022-09-15T18:26:14.555Z,14.19
2022-09-15T18:29:16.207Z,14.19
2022-09-15T18:32:17.870Z,14.16
2022-09-15T18:35:20.876Z,14.13
2022-09-15T18:38:23.563Z,14.08
2022-09-15T18:41:25.242Z,14.04
2022-09-15T18:44:29.182Z,14.02
2022-09-15T18:47:31.181Z,13.98
2022-09-15T18:50:32.916Z,13.94
2022-09-15T18:53:38.583Z,13.91
2022-09-15T18:56:40.197Z,13.86
2022-09-15T18:59:41.960Z,13.84
2022-09-15T19:02:44.541Z,13.81
2022-09-15T19:05:46.255Z,13.79
2022-09-15T19:08:47.937Z,13.75
2022-09-15T19:11:49.488Z,13.77
2022-09-15T19:14:51.105Z,13.76
2022-09-15T19:17:52.925Z,13.71
2022-09-15T19:20:54.544Z,13.65
2022-09-15T19:23:58.658Z,13.65
2022-09-15T19:27:01.541Z,13.62
2022-09-15T19:30:03.991Z,13.60
2022-09-15T19:33:05.606Z,13.59
2022-09-15T19:36:27.512Z,13.58
2022-09-15T19:39:29.842Z,13.54
2022-09-15T19:42:31.446Z,13.50
2022-09-15T19:45:33.980Z,13.48
2022-09-15T19:48:38.639Z,13.45
2022-09-15T19:51:43.142Z,13.43
2022-09-15T19:54:44.779Z,13.40
2022-09-15T19:57:46.798Z,13.37
2022-09-15T20:00:55.322Z,13.33
2022-09-15T20:03:57.314Z,13.29
2022-09-15T20:06:59.002Z,13.23
2022-09-15T20:10:01.028Z,13.19
2022-09-15T20:13:03.108Z,13.07
2022-09-15T20:16:06.003Z,13.09
2022-09-15T20:19:07.940Z,13.01
2022-09-15T20:22:10.448Z,12.99
2022-09-15T20:25:12.141Z,12.95
2022-09-15T20:28:13.780Z,12.90
2022-09-15T20:31:18.287Z,12.86
2022-09-15T20:34:19.966Z,12.83
2022-09-15T20:37:23.047Z,12.80
2022-09-15T20:40:26.364Z,12.78
2022-09-15T20:43:28.093Z,12.74
2022-09-15T20:46:31.394Z,12.74
2022-09-15T20:49:33.096Z,12.71
2022-09-15T20:52:38.426Z,12.69
2022-09-15T20:55:40.275Z,12.68
2022-09-15T20:58:42.966Z,12.67
2022-09-15T21:01:44.651Z,12.65
2022-09-15T21:04:46.912Z,12.66
2022-09-15T21:07:48.532Z,12.66
2022-09-15T21:10:50.133Z,12.65
2022-09-15T21:13:52.493Z,12.61
2022-09-15T21:16:54.219Z,12.60
2022-09-15T21:19:55.889Z,12.56
2022-09-15T21:22:57.730Z,12.52
2022-09-15T21:26:06.381Z,12.49
2022-09-15T21:29:08.333Z,12.49
2022-09-15T21:32:10.034Z,12.46
2022-09-15T21:35:11.831Z,12.44
2022-09-15T21:38:13.615Z,12.43
2022-09-15T21:41:17.420Z,12.39
2022-09-15T21:44:19.024Z,12.38
2022-09-15T21:47:20.592Z,12.35
2022-09-15T21:50:22.222Z,12.33
2022-09-15T21:53:24.329Z,12.30
2022-09-15T21:56:27.629Z,12.29
2022-09-15T21:59:29.314Z,12.26
2022-09-15T22:02:31.239Z,12.23
2022-09-15T22:05:33.238Z,12.22
2022-09-15T22:08:34.901Z,12.20
2022-09-15T22:11:37.093Z,12.21
2022-09-15T22:14:38.735Z,12.22
2022-09-15T22:17:40.404Z,12.24
2022-09-15T22:20:41.990Z,12.26
2022-09-15T22:23:44.810Z,12.27
2022-09-15T22:26:46.405Z,12.27
2022-09-15T22:29:47.980Z,12.30
2022-09-15T22:32:49.950Z,12.33
2022-09-15T22:35:52.445Z,12.33
2022-09-15T22:38:54.435Z,12.35
2022-09-15T22:41:56.232Z,12.37
2022-09-15T22:44:57.941Z,12.37
2022-09-15T22:47:59.593Z,12.38
2022-09-15T22:51:02.561Z,12.37
2022-09-15T22:54:04.285Z,12.37
2022-09-15T22:57:05.916Z,12.37
2022-09-15T23:00:08.478Z,12.39
2022-09-15T23:03:10.912Z,12.39
2022-09-15T23:06:12.497Z,12.40
2022-09-15T23:09:14.079Z,12.38
2022-09-15T23:12:16.010Z,12.39
2022-09-15T23:15:17.785Z,12.43
2022-09-15T23:18:19.440Z,12.42
2022-09-15T23:21:21.336Z,12.44
2022-09-15T23:24:23.052Z,12.43
2022-09-15T23:27:24.674Z,12.44
2022-09-15T23:30:26.351Z,12.43
2022-09-15T23:33:31.582Z,12.44
2022-09-15T23:36:33.229Z,12.43
2022-09-15T23:39:34.856Z,12.46
2022-09-15T23:42:37.258Z,12.48
2022-09-15T23:45:38.921Z,12.48
2022-09-15T23:48:40.678Z,12.49
2022-09-15T23:51:42.257Z,12.48
2022-09-15T23:54:43.916Z,12.49
2022-09-15T23:57:45.554Z,12.47
